sensor_id;sensor_type;location;lat;lon;timestamp;P1;durP1;ratioP1;P2;durP2;ratioP2
48727;SDS011;34527;45.618;5.130;2024-02-21T00:00:51;22.92;;;14.75;;
48727;SDS011;34527;45.618;5.130;2024-02-21T00:03:17;17.48;;;11.23;;
48727;SDS011;34527;45.618;5.130;2024-02-21T00:05:42;15.82;;;10.13;;
48727;SDS011;34527;45.618;5.130;2024-02-21T00:08:08;19.95;;;9.93;;
48727;SDS011;34527;45.618;5.130;2024-02-21T00:10:34;16.00;;;10.23;;
48727;SDS011;34527;45.618;5.130;2024-02-21T00:13:00;16.08;;;8.93;;
48727;SDS011;34527;45.618;5.130;2024-02-21T00:15:26;17.00;;;10.23;;
48727;SDS011;34527;45.618;5.130;2024-02-21T00:17:51;16.10;;;9.88;;
48727;SDS011;34527;45.618;5.130;2024-02-21T00:20:17;17.38;;;11.38;;
48727;SDS011;34527;45.618;5.130;2024-02-21T00:22:43;16.65;;;10.52;;
48727;SDS011;34527;45.618;5.130;2024-02-21T00:25:09;16.38;;;10.30;;
48727;SDS011;34527;45.618;5.130;2024-02-21T00:27:35;16.55;;;9.50;;
48727;SDS011;34527;45.618;5.130;2024-02-21T00:30:01;19.52;;;9.63;;
48727;SDS011;34527;45.618;5.130;2024-02-21T00:32:27;17.42;;;10.15;;
48727;SDS011;34527;45.618;5.130;2024-02-21T00:34:52;15.60;;;10.60;;
48727;SDS011;34527;45.618;5.130;2024-02-21T00:37:18;22.75;;;11.50;;
48727;SDS011;34527;45.618;5.130;2024-02-21T00:39:43;14.68;;;9.38;;
48727;SDS011;34527;45.618;5.130;2024-02-21T00:42:09;19.38;;;10.07;;
48727;SDS011;34527;45.618;5.130;2024-02-21T00:44:35;17.70;;;9.60;;
48727;SDS011;34527;45.618;5.130;2024-02-21T00:47:00;16.60;;;9.25;;
48727;SDS011;34527;45.618;5.130;2024-02-21T00:49:26;16.38;;;9.13;;
48727;SDS011;34527;45.618;5.130;2024-02-21T00:51:51;16.90;;;10.23;;
48727;SDS011;34527;45.618;5.130;2024-02-21T00:54:17;17.45;;;10.38;;
48727;SDS011;34527;45.618;5.130;2024-02-21T00:56:43;15.00;;;9.20;;
48727;SDS011;34527;45.618;5.130;2024-02-21T00:59:08;18.58;;;9.95;;
48727;SDS011;34527;45.618;5.130;2024-02-21T01:01:34;18.85;;;10.25;;
48727;SDS011;34527;45.618;5.130;2024-02-21T01:03:59;17.15;;;10.23;;
48727;SDS011;34527;45.618;5.130;2024-02-21T01:06:25;15.07;;;9.40;;
48727;SDS011;34527;45.618;5.130;2024-02-21T01:08:51;17.48;;;9.40;;
48727;SDS011;34527;45.618;5.130;2024-02-21T01:11:16;15.65;;;9.27;;
48727;SDS011;34527;45.618;5.130;2024-02-21T01:13:42;19.52;;;9.70;;
48727;SDS011;34527;45.618;5.130;2024-02-21T01:16:08;13.55;;;9.13;;
48727;SDS011;34527;45.618;5.130;2024-02-21T01:18:34;19.70;;;9.90;;
48727;SDS011;34527;45.618;5.130;2024-02-21T01:21:00;15.80;;;9.63;;
48727;SDS011;34527;45.618;5.130;2024-02-21T01:23:25;16.23;;;9.50;;
48727;SDS011;34527;45.618;5.130;2024-02-21T01:25:51;17.23;;;9.70;;
48727;SDS011;34527;45.618;5.130;2024-02-21T01:28:17;17.48;;;10.02;;
48727;SDS011;34527;45.618;5.130;2024-02-21T01:30:43;20.73;;;9.75;;
48727;SDS011;34527;45.618;5.130;2024-02-21T01:33:09;14.63;;;8.57;;
48727;SDS011;34527;45.618;5.130;2024-02-21T01:35:34;12.82;;;9.15;;
48727;SDS011;34527;45.618;5.130;2024-02-21T01:38:01;15.75;;;9.27;;
48727;SDS011;34527;45.618;5.130;2024-02-21T01:40:26;10.60;;;8.80;;
48727;SDS011;34527;45.618;5.130;2024-02-21T01:42:54;17.63;;;9.85;;
48727;SDS011;34527;45.618;5.130;2024-02-21T01:45:20;17.17;;;9.82;;
48727;SDS011;34527;45.618;5.130;2024-02-21T01:47:45;15.18;;;8.43;;
48727;SDS011;34527;45.618;5.130;2024-02-21T01:50:12;15.95;;;8.90;;
48727;SDS011;34527;45.618;5.130;2024-02-21T01:52:39;16.52;;;9.75;;
48727;SDS011;34527;45.618;5.130;2024-02-21T01:55:06;17.45;;;9.93;;
48727;SDS011;34527;45.618;5.130;2024-02-21T01:57:34;14.98;;;9.07;;
48727;SDS011;34527;45.618;5.130;2024-02-21T02:00:00;22.65;;;9.70;;
48727;SDS011;34527;45.618;5.130;2024-02-21T02:02:26;22.23;;;10.27;;
48727;SDS011;34527;45.618;5.130;2024-02-21T02:04:52;15.68;;;10.30;;
48727;SDS011;34527;45.618;5.130;2024-02-21T02:07:18;15.88;;;10.20;;
48727;SDS011;34527;45.618;5.130;2024-02-21T02:09:43;21.90;;;11.55;;
48727;SDS011;34527;45.618;5.130;2024-02-21T02:12:09;20.27;;;10.88;;
48727;SDS011;34527;45.618;5.130;2024-02-21T02:14:35;23.70;;;11.82;;
48727;SDS011;34527;45.618;5.130;2024-02-21T02:17:00;19.15;;;10.32;;
48727;SDS011;34527;45.618;5.130;2024-02-21T02:19:26;13.88;;;10.15;;
48727;SDS011;34527;45.618;5.130;2024-02-21T02:21:53;14.07;;;9.70;;
48727;SDS011;34527;45.618;5.130;2024-02-21T02:24:25;18.58;;;10.40;;
48727;SDS011;34527;45.618;5.130;2024-02-21T02:26:52;18.80;;;10.30;;
48727;SDS011;34527;45.618;5.130;2024-02-21T02:29:17;22.02;;;11.15;;
48727;SDS011;34527;45.618;5.130;2024-02-21T02:31:44;15.73;;;10.68;;
48727;SDS011;34527;45.618;5.130;2024-02-21T02:34:09;18.77;;;10.88;;
48727;SDS011;34527;45.618;5.130;2024-02-21T02:36:35;15.25;;;9.82;;
48727;SDS011;34527;45.618;5.130;2024-02-21T02:39:01;16.23;;;10.18;;
48727;SDS011;34527;45.618;5.130;2024-02-21T02:41:27;18.27;;;10.38;;
48727;SDS011;34527;45.618;5.130;2024-02-21T02:43:52;22.30;;;10.63;;
48727;SDS011;34527;45.618;5.130;2024-02-21T02:46:18;19.35;;;10.77;;
48727;SDS011;34527;45.618;5.130;2024-02-21T02:48:43;20.00;;;11.00;;
48727;SDS011;34527;45.618;5.130;2024-02-21T02:51:10;17.88;;;10.75;;
48727;SDS011;34527;45.618;5.130;2024-02-21T02:53:35;20.13;;;11.57;;
48727;SDS011;34527;45.618;5.130;2024-02-21T02:56:01;23.83;;;11.27;;
48727;SDS011;34527;45.618;5.130;2024-02-21T02:58:28;20.55;;;11.88;;
48727;SDS011;34527;45.618;5.130;2024-02-21T03:00:54;24.30;;;14.13;;
48727;SDS011;34527;45.618;5.130;2024-02-21T03:03:19;21.15;;;11.98;;
48727;SDS011;34527;45.618;5.130;2024-02-21T03:05:45;20.30;;;12.07;;
48727;SDS011;34527;45.618;5.130;2024-02-21T03:08:11;21.30;;;11.43;;
48727;SDS011;34527;45.618;5.130;2024-02-21T03:10:36;22.88;;;13.02;;
48727;SDS011;34527;45.618;5.130;2024-02-21T03:13:02;21.63;;;12.70;;
48727;SDS011;34527;45.618;5.130;2024-02-21T03:15:28;20.30;;;12.57;;
48727;SDS011;34527;45.618;5.130;2024-02-21T03:17:54;18.55;;;11.30;;
48727;SDS011;34527;45.618;5.130;2024-02-21T03:20:20;25.55;;;13.48;;
48727;SDS011;34527;45.618;5.130;2024-02-21T03:22:45;20.35;;;11.50;;
48727;SDS011;34527;45.618;5.130;2024-02-21T03:25:11;22.38;;;13.30;;
48727;SDS011;34527;45.618;5.130;2024-02-21T03:27:37;18.08;;;10.57;;
48727;SDS011;34527;45.618;5.130;2024-02-21T03:30:03;15.95;;;9.93;;
48727;SDS011;34527;45.618;5.130;2024-02-21T03:32:30;17.00;;;9.73;;
48727;SDS011;34527;45.618;5.130;2024-02-21T03:34:55;19.52;;;10.27;;
48727;SDS011;34527;45.618;5.130;2024-02-21T03:37:21;13.20;;;9.70;;
48727;SDS011;34527;45.618;5.130;2024-02-21T03:39:47;16.30;;;10.82;;
48727;SDS011;34527;45.618;5.130;2024-02-21T03:42:12;16.98;;;10.30;;
48727;SDS011;34527;45.618;5.130;2024-02-21T03:44:38;17.02;;;9.88;;
48727;SDS011;34527;45.618;5.130;2024-02-21T03:47:04;16.38;;;9.80;;
48727;SDS011;34527;45.618;5.130;2024-02-21T03:49:30;17.67;;;10.15;;
48727;SDS011;34527;45.618;5.130;2024-02-21T03:51:55;19.00;;;10.30;;
48727;SDS011;34527;45.618;5.130;2024-02-21T03:54:21;17.73;;;10.27;;
48727;SDS011;34527;45.618;5.130;2024-02-21T03:56:47;16.98;;;9.23;;
48727;SDS011;34527;45.618;5.130;2024-02-21T03:59:13;12.07;;;8.93;;
48727;SDS011;34527;45.618;5.130;2024-02-21T04:01:39;15.15;;;9.15;;
48727;SDS011;34527;45.618;5.130;2024-02-21T04:04:05;16.95;;;9.23;;
48727;SDS011;34527;45.618;5.130;2024-02-21T04:06:30;12.55;;;8.80;;
48727;SDS011;34527;45.618;5.130;2024-02-21T04:08:56;17.88;;;9.75;;
48727;SDS011;34527;45.618;5.130;2024-02-21T04:11:22;14.57;;;9.73;;
48727;SDS011;34527;45.618;5.130;2024-02-21T04:13:48;17.52;;;9.95;;
48727;SDS011;34527;45.618;5.130;2024-02-21T04:16:15;20.98;;;11.02;;
48727;SDS011;34527;45.618;5.130;2024-02-21T04:18:41;20.45;;;10.95;;
48727;SDS011;34527;45.618;5.130;2024-02-21T04:21:07;17.38;;;10.63;;
48727;SDS011;34527;45.618;5.130;2024-02-21T04:23:33;17.50;;;10.68;;
48727;SDS011;34527;45.618;5.130;2024-02-21T04:25:58;16.10;;;9.85;;
48727;SDS011;34527;45.618;5.130;2024-02-21T04:28:24;13.40;;;8.55;;
48727;SDS011;34527;45.618;5.130;2024-02-21T04:30:50;17.13;;;10.20;;
48727;SDS011;34527;45.618;5.130;2024-02-21T04:33:15;17.17;;;9.88;;
48727;SDS011;34527;45.618;5.130;2024-02-21T04:35:41;18.05;;;9.95;;
48727;SDS011;34527;45.618;5.130;2024-02-21T04:38:07;14.48;;;8.50;;
48727;SDS011;34527;45.618;5.130;2024-02-21T04:40:32;13.23;;;8.00;;
48727;SDS011;34527;45.618;5.130;2024-02-21T04:42:58;16.90;;;9.38;;
48727;SDS011;34527;45.618;5.130;2024-02-21T04:45:23;16.20;;;8.82;;
48727;SDS011;34527;45.618;5.130;2024-02-21T04:47:49;13.20;;;9.13;;
48727;SDS011;34527;45.618;5.130;2024-02-21T04:50:14;18.63;;;8.90;;
48727;SDS011;34527;45.618;5.130;2024-02-21T04:52:40;15.07;;;8.50;;
48727;SDS011;34527;45.618;5.130;2024-02-21T04:55:06;13.63;;;8.45;;
48727;SDS011;34527;45.618;5.130;2024-02-21T04:57:32;17.10;;;8.95;;
48727;SDS011;34527;45.618;5.130;2024-02-21T04:59:58;14.88;;;9.02;;
48727;SDS011;34527;45.618;5.130;2024-02-21T05:02:23;19.85;;;9.48;;
48727;SDS011;34527;45.618;5.130;2024-02-21T05:04:49;15.27;;;9.68;;
48727;SDS011;34527;45.618;5.130;2024-02-21T05:07:15;14.30;;;9.02;;
48727;SDS011;34527;45.618;5.130;2024-02-21T05:09:44;16.23;;;9.73;;
48727;SDS011;34527;45.618;5.130;2024-02-21T05:12:10;12.57;;;8.98;;
48727;SDS011;34527;45.618;5.130;2024-02-21T05:14:36;17.70;;;9.25;;
48727;SDS011;34527;45.618;5.130;2024-02-21T05:17:02;14.43;;;10.15;;
48727;SDS011;34527;45.618;5.130;2024-02-21T05:19:28;15.90;;;9.77;;
48727;SDS011;34527;45.618;5.130;2024-02-21T05:21:54;16.48;;;9.55;;
48727;SDS011;34527;45.618;5.130;2024-02-21T05:24:19;14.45;;;9.90;;
48727;SDS011;34527;45.618;5.130;2024-02-21T05:26:45;12.50;;;9.45;;
48727;SDS011;34527;45.618;5.130;2024-02-21T05:29:11;17.90;;;9.38;;
48727;SDS011;34527;45.618;5.130;2024-02-21T05:31:54;23.02;;;12.80;;
48727;SDS011;34527;45.618;5.130;2024-02-21T05:34:23;15.05;;;10.40;;
48727;SDS011;34527;45.618;5.130;2024-02-21T05:36:50;23.02;;;9.77;;
48727;SDS011;34527;45.618;5.130;2024-02-21T05:39:16;16.27;;;10.10;;
48727;SDS011;34527;45.618;5.130;2024-02-21T05:41:43;16.48;;;10.18;;
48727;SDS011;34527;45.618;5.130;2024-02-21T05:44:08;14.75;;;8.90;;
48727;SDS011;34527;45.618;5.130;2024-02-21T05:46:34;14.23;;;8.73;;
48727;SDS011;34527;45.618;5.130;2024-02-21T05:49:00;13.85;;;9.13;;
48727;SDS011;34527;45.618;5.130;2024-02-21T05:51:26;14.07;;;8.88;;
48727;SDS011;34527;45.618;5.130;2024-02-21T05:53:51;12.27;;;8.40;;
48727;SDS011;34527;45.618;5.130;2024-02-21T05:56:17;14.23;;;9.02;;
48727;SDS011;34527;45.618;5.130;2024-02-21T05:58:43;18.35;;;9.65;;
48727;SDS011;34527;45.618;5.130;2024-02-21T06:01:09;14.10;;;8.57;;
48727;SDS011;34527;45.618;5.130;2024-02-21T06:03:36;17.83;;;10.25;;
48727;SDS011;34527;45.618;5.130;2024-02-21T06:06:02;25.92;;;14.10;;
48727;SDS011;34527;45.618;5.130;2024-02-21T06:08:29;71.25;;;40.63;;
48727;SDS011;34527;45.618;5.130;2024-02-21T06:10:55;34.05;;;21.23;;
48727;SDS011;34527;45.618;5.130;2024-02-21T06:13:21;19.83;;;11.73;;
48727;SDS011;34527;45.618;5.130;2024-02-21T06:15:48;16.25;;;11.60;;
48727;SDS011;34527;45.618;5.130;2024-02-21T06:18:15;17.90;;;10.60;;
48727;SDS011;34527;45.618;5.130;2024-02-21T06:20:43;14.70;;;10.20;;
48727;SDS011;34527;45.618;5.130;2024-02-21T06:23:11;17.13;;;10.45;;
48727;SDS011;34527;45.618;5.130;2024-02-21T06:25:36;14.35;;;10.57;;
48727;SDS011;34527;45.618;5.130;2024-02-21T06:28:02;18.98;;;12.25;;
48727;SDS011;34527;45.618;5.130;2024-02-21T06:30:28;19.48;;;10.13;;
48727;SDS011;34527;45.618;5.130;2024-02-21T06:32:54;17.38;;;11.48;;
48727;SDS011;34527;45.618;5.130;2024-02-21T06:35:24;46.08;;;25.25;;
48727;SDS011;34527;45.618;5.130;2024-02-21T06:37:50;50.55;;;29.77;;
48727;SDS011;34527;45.618;5.130;2024-02-21T06:40:20;45.60;;;23.98;;
48727;SDS011;34527;45.618;5.130;2024-02-21T06:42:47;54.55;;;29.85;;
48727;SDS011;34527;45.618;5.130;2024-02-21T06:45:12;36.78;;;23.98;;
48727;SDS011;34527;45.618;5.130;2024-02-21T06:47:38;40.95;;;23.40;;
48727;SDS011;34527;45.618;5.130;2024-02-21T06:50:04;41.15;;;25.48;;
48727;SDS011;34527;45.618;5.130;2024-02-21T06:52:30;40.40;;;22.45;;
48727;SDS011;34527;45.618;5.130;2024-02-21T06:54:56;71.38;;;41.70;;
48727;SDS011;34527;45.618;5.130;2024-02-21T06:57:21;50.10;;;31.63;;
48727;SDS011;34527;45.618;5.130;2024-02-21T06:59:47;62.95;;;36.80;;
48727;SDS011;34527;45.618;5.130;2024-02-21T07:02:13;56.28;;;33.88;;
48727;SDS011;34527;45.618;5.130;2024-02-21T07:04:39;35.17;;;21.10;;
48727;SDS011;34527;45.618;5.130;2024-02-21T07:07:04;28.55;;;16.70;;
48727;SDS011;34527;45.618;5.130;2024-02-21T07:09:30;31.67;;;19.50;;
48727;SDS011;34527;45.618;5.130;2024-02-21T07:11:57;28.08;;;14.70;;
48727;SDS011;34527;45.618;5.130;2024-02-21T07:14:23;39.00;;;20.30;;
48727;SDS011;34527;45.618;5.130;2024-02-21T07:16:49;29.77;;;17.27;;
48727;SDS011;34527;45.618;5.130;2024-02-21T07:19:14;27.58;;;16.73;;
48727;SDS011;34527;45.618;5.130;2024-02-21T07:21:40;25.55;;;13.65;;
48727;SDS011;34527;45.618;5.130;2024-02-21T07:24:07;22.98;;;13.27;;
48727;SDS011;34527;45.618;5.130;2024-02-21T07:26:33;21.65;;;15.32;;
48727;SDS011;34527;45.618;5.130;2024-02-21T07:28:58;20.85;;;14.40;;
48727;SDS011;34527;45.618;5.130;2024-02-21T07:31:24;24.20;;;13.43;;
48727;SDS011;34527;45.618;5.130;2024-02-21T07:33:50;24.52;;;12.60;;
48727;SDS011;34527;45.618;5.130;2024-02-21T07:36:16;19.83;;;13.10;;
48727;SDS011;34527;45.618;5.130;2024-02-21T07:38:53;23.38;;;12.90;;
48727;SDS011;34527;45.618;5.130;2024-02-21T07:41:18;22.77;;;13.88;;
48727;SDS011;34527;45.618;5.130;2024-02-21T07:43:44;26.70;;;15.40;;
48727;SDS011;34527;45.618;5.130;2024-02-21T07:46:10;26.08;;;15.13;;
48727;SDS011;34527;45.618;5.130;2024-02-21T07:48:35;26.65;;;15.10;;
48727;SDS011;34527;45.618;5.130;2024-02-21T07:51:01;24.70;;;15.50;;
48727;SDS011;34527;45.618;5.130;2024-02-21T07:53:27;24.95;;;15.40;;
48727;SDS011;34527;45.618;5.130;2024-02-21T07:55:52;24.65;;;14.27;;
48727;SDS011;34527;45.618;5.130;2024-02-21T07:58:18;27.27;;;14.70;;
48727;SDS011;34527;45.618;5.130;2024-02-21T08:00:43;26.40;;;15.00;;
48727;SDS011;34527;45.618;5.130;2024-02-21T08:03:09;26.65;;;15.07;;
48727;SDS011;34527;45.618;5.130;2024-02-21T08:05:35;27.05;;;15.70;;
48727;SDS011;34527;45.618;5.130;2024-02-21T08:08:00;33.33;;;16.52;;
48727;SDS011;34527;45.618;5.130;2024-02-21T08:10:26;28.10;;;16.02;;
48727;SDS011;34527;45.618;5.130;2024-02-21T08:12:51;33.20;;;17.73;;
48727;SDS011;34527;45.618;5.130;2024-02-21T08:15:17;32.45;;;20.15;;
48727;SDS011;34527;45.618;5.130;2024-02-21T08:17:43;26.45;;;16.67;;
48727;SDS011;34527;45.618;5.130;2024-02-21T08:20:08;32.40;;;16.67;;
48727;SDS011;34527;45.618;5.130;2024-02-21T08:22:37;30.25;;;15.07;;
48727;SDS011;34527;45.618;5.130;2024-02-21T08:25:03;28.27;;;16.23;;
48727;SDS011;34527;45.618;5.130;2024-02-21T08:27:30;22.25;;;13.82;;
48727;SDS011;34527;45.618;5.130;2024-02-21T08:29:56;21.25;;;14.10;;
48727;SDS011;34527;45.618;5.130;2024-02-21T08:32:21;29.40;;;14.25;;
48727;SDS011;34527;45.618;5.130;2024-02-21T08:34:47;25.40;;;15.20;;
48727;SDS011;34527;45.618;5.130;2024-02-21T08:37:12;22.80;;;13.70;;
48727;SDS011;34527;45.618;5.130;2024-02-21T08:39:38;25.70;;;14.18;;
48727;SDS011;34527;45.618;5.130;2024-02-21T08:42:04;24.45;;;15.00;;
48727;SDS011;34527;45.618;5.130;2024-02-21T08:44:30;26.05;;;14.65;;
48727;SDS011;34527;45.618;5.130;2024-02-21T08:46:55;28.27;;;14.93;;
48727;SDS011;34527;45.618;5.130;2024-02-21T08:49:21;27.63;;;15.43;;
48727;SDS011;34527;45.618;5.130;2024-02-21T08:51:47;27.65;;;15.15;;
48727;SDS011;34527;45.618;5.130;2024-02-21T08:54:12;24.52;;;14.52;;
48727;SDS011;34527;45.618;5.130;2024-02-21T08:56:38;25.55;;;14.10;;
48727;SDS011;34527;45.618;5.130;2024-02-21T08:59:03;22.58;;;13.30;;
48727;SDS011;34527;45.618;5.130;2024-02-21T09:01:29;27.80;;;13.93;;
48727;SDS011;34527;45.618;5.130;2024-02-21T09:03:55;22.48;;;13.18;;
48727;SDS011;34527;45.618;5.130;2024-02-21T09:06:21;24.65;;;13.50;;
48727;SDS011;34527;45.618;5.130;2024-02-21T09:08:47;20.23;;;11.40;;
48727;SDS011;34527;45.618;5.130;2024-02-21T09:11:13;22.15;;;10.88;;
48727;SDS011;34527;45.618;5.130;2024-02-21T09:13:38;19.30;;;11.80;;
48727;SDS011;34527;45.618;5.130;2024-02-21T09:16:04;17.35;;;10.35;;
48727;SDS011;34527;45.618;5.130;2024-02-21T09:18:31;18.58;;;10.90;;
48727;SDS011;34527;45.618;5.130;2024-02-21T09:20:56;14.85;;;7.88;;
48727;SDS011;34527;45.618;5.130;2024-02-21T09:23:25;14.50;;;8.18;;
48727;SDS011;34527;45.618;5.130;2024-02-21T09:25:51;12.15;;;7.50;;
48727;SDS011;34527;45.618;5.130;2024-02-21T09:28:16;15.80;;;7.70;;
48727;SDS011;34527;45.618;5.130;2024-02-21T09:30:42;17.85;;;9.85;;
48727;SDS011;34527;45.618;5.130;2024-02-21T09:33:08;16.40;;;7.15;;
48727;SDS011;34527;45.618;5.130;2024-02-21T09:35:33;18.15;;;10.68;;
48727;SDS011;34527;45.618;5.130;2024-02-21T09:37:59;18.10;;;10.25;;
48727;SDS011;34527;45.618;5.130;2024-02-21T09:40:25;17.27;;;9.70;;
48727;SDS011;34527;45.618;5.130;2024-02-21T09:42:53;16.40;;;9.73;;
48727;SDS011;34527;45.618;5.130;2024-02-21T09:45:32;15.10;;;9.10;;
48727;SDS011;34527;45.618;5.130;2024-02-21T09:50:54;16.58;;;9.73;;
48727;SDS011;34527;45.618;5.130;2024-02-21T09:53:21;11.57;;;6.55;;
48727;SDS011;34527;45.618;5.130;2024-02-21T09:55:49;10.98;;;6.82;;
48727;SDS011;34527;45.618;5.130;2024-02-21T09:58:15;10.43;;;6.20;;
48727;SDS011;34527;45.618;5.130;2024-02-21T10:00:41;7.70;;;4.70;;
48727;SDS011;34527;45.618;5.130;2024-02-21T10:03:07;11.77;;;6.55;;
48727;SDS011;34527;45.618;5.130;2024-02-21T10:05:34;9.20;;;5.97;;
48727;SDS011;34527;45.618;5.130;2024-02-21T10:08:00;11.20;;;7.20;;
48727;SDS011;34527;45.618;5.130;2024-02-21T10:10:28;16.42;;;8.80;;
48727;SDS011;34527;45.618;5.130;2024-02-21T10:12:55;12.93;;;7.03;;
48727;SDS011;34527;45.618;5.130;2024-02-21T10:15:21;13.68;;;8.40;;
48727;SDS011;34527;45.618;5.130;2024-02-21T10:17:48;11.65;;;8.23;;
48727;SDS011;34527;45.618;5.130;2024-02-21T10:20:14;12.10;;;8.05;;
48727;SDS011;34527;45.618;5.130;2024-02-21T10:22:41;14.45;;;7.90;;
48727;SDS011;34527;45.618;5.130;2024-02-21T10:25:10;14.15;;;8.48;;
48727;SDS011;34527;45.618;5.130;2024-02-21T10:27:37;17.42;;;8.80;;
48727;SDS011;34527;45.618;5.130;2024-02-21T10:30:04;14.70;;;9.50;;
48727;SDS011;34527;45.618;5.130;2024-02-21T10:32:31;15.23;;;9.65;;
48727;SDS011;34527;45.618;5.130;2024-02-21T10:35:03;18.23;;;8.93;;
48727;SDS011;34527;45.618;5.130;2024-02-21T10:37:30;15.57;;;8.93;;
48727;SDS011;34527;45.618;5.130;2024-02-21T10:39:56;13.65;;;8.45;;
48727;SDS011;34527;45.618;5.130;2024-02-21T10:42:22;15.88;;;9.02;;
48727;SDS011;34527;45.618;5.130;2024-02-21T10:44:50;17.40;;;8.55;;
48727;SDS011;34527;45.618;5.130;2024-02-21T10:47:17;12.77;;;8.45;;
48727;SDS011;34527;45.618;5.130;2024-02-21T10:49:46;16.58;;;8.57;;
48727;SDS011;34527;45.618;5.130;2024-02-21T10:52:25;15.20;;;7.85;;
48727;SDS011;34527;45.618;5.130;2024-02-21T10:57:40;13.95;;;7.75;;
48727;SDS011;34527;45.618;5.130;2024-02-21T11:00:07;7.18;;;3.90;;
48727;SDS011;34527;45.618;5.130;2024-02-21T11:02:37;5.18;;;3.15;;
48727;SDS011;34527;45.618;5.130;2024-02-21T11:05:04;4.80;;;3.20;;
48727;SDS011;34527;45.618;5.130;2024-02-21T11:07:31;4.47;;;2.20;;
48727;SDS011;34527;45.618;5.130;2024-02-21T11:10:00;5.43;;;2.40;;
48727;SDS011;34527;45.618;5.130;2024-02-21T11:12:25;3.50;;;2.30;;
48727;SDS011;34527;45.618;5.130;2024-02-21T11:14:52;4.57;;;2.28;;
48727;SDS011;34527;45.618;5.130;2024-02-21T11:17:29;4.47;;;2.03;;
48727;SDS011;34527;45.618;5.130;2024-02-21T11:19:55;7.45;;;3.28;;
48727;SDS011;34527;45.618;5.130;2024-02-21T11:22:20;4.53;;;2.80;;
48727;SDS011;34527;45.618;5.130;2024-02-21T11:24:49;4.45;;;2.95;;
48727;SDS011;34527;45.618;5.130;2024-02-21T11:27:16;4.13;;;2.78;;
48727;SDS011;34527;45.618;5.130;2024-02-21T11:29:54;4.10;;;2.60;;
48727;SDS011;34527;45.618;5.130;2024-02-21T11:32:21;3.92;;;2.33;;
48727;SDS011;34527;45.618;5.130;2024-02-21T11:37:18;7.05;;;3.47;;
48727;SDS011;34527;45.618;5.130;2024-02-21T11:39:44;8.65;;;4.60;;
48727;SDS011;34527;45.618;5.130;2024-02-21T11:42:10;5.78;;;3.10;;
48727;SDS011;34527;45.618;5.130;2024-02-21T11:44:37;5.18;;;2.80;;
48727;SDS011;34527;45.618;5.130;2024-02-21T11:47:04;7.28;;;4.72;;
48727;SDS011;34527;45.618;5.130;2024-02-21T11:49:31;3.70;;;2.72;;
48727;SDS011;34527;45.618;5.130;2024-02-21T11:52:01;5.22;;;2.80;;
48727;SDS011;34527;45.618;5.130;2024-02-21T11:54:29;4.70;;;3.00;;
48727;SDS011;34527;45.618;5.130;2024-02-21T11:56:55;7.00;;;3.10;;
48727;SDS011;34527;45.618;5.130;2024-02-21T11:59:21;5.30;;;2.85;;
48727;SDS011;34527;45.618;5.130;2024-02-21T12:01:47;5.22;;;2.60;;
48727;SDS011;34527;45.618;5.130;2024-02-21T12:04:17;5.43;;;3.00;;
48727;SDS011;34527;45.618;5.130;2024-02-21T12:06:44;4.68;;;2.55;;
48727;SDS011;34527;45.618;5.130;2024-02-21T12:09:13;5.80;;;2.75;;
48727;SDS011;34527;45.618;5.130;2024-02-21T12:11:40;7.07;;;3.30;;
48727;SDS011;34527;45.618;5.130;2024-02-21T12:14:06;4.32;;;2.67;;
48727;SDS011;34527;45.618;5.130;2024-02-21T12:16:32;5.70;;;2.72;;
48727;SDS011;34527;45.618;5.130;2024-02-21T12:18:59;5.38;;;2.65;;
48727;SDS011;34527;45.618;5.130;2024-02-21T12:21:34;4.07;;;2.45;;
48727;SDS011;34527;45.618;5.130;2024-02-21T12:26:39;3.72;;;3.10;;
48727;SDS011;34527;45.618;5.130;2024-02-21T12:29:05;4.97;;;2.97;;
48727;SDS011;34527;45.618;5.130;2024-02-21T12:31:30;4.65;;;2.90;;
48727;SDS011;34527;45.618;5.130;2024-02-21T12:33:56;5.28;;;2.80;;
48727;SDS011;34527;45.618;5.130;2024-02-21T12:36:22;4.28;;;2.75;;
48727;SDS011;34527;45.618;5.130;2024-02-21T12:38:47;6.15;;;3.13;;
48727;SDS011;34527;45.618;5.130;2024-02-21T12:41:14;5.40;;;2.45;;
48727;SDS011;34527;45.618;5.130;2024-02-21T12:43:40;3.33;;;2.33;;
48727;SDS011;34527;45.618;5.130;2024-02-21T12:46:05;3.85;;;2.38;;
48727;SDS011;34527;45.618;5.130;2024-02-21T12:48:32;4.60;;;2.50;;
48727;SDS011;34527;45.618;5.130;2024-02-21T12:50:59;4.63;;;2.35;;
48727;SDS011;34527;45.618;5.130;2024-02-21T12:53:24;3.45;;;2.10;;
48727;SDS011;34527;45.618;5.130;2024-02-21T12:55:50;3.05;;;2.20;;
48727;SDS011;34527;45.618;5.130;2024-02-21T12:58:17;2.90;;;2.28;;
48727;SDS011;34527;45.618;5.130;2024-02-21T13:00:42;2.42;;;2.05;;
48727;SDS011;34527;45.618;5.130;2024-02-21T13:03:08;4.03;;;2.40;;
48727;SDS011;34527;45.618;5.130;2024-02-21T13:05:37;3.35;;;2.20;;
48727;SDS011;34527;45.618;5.130;2024-02-21T13:08:04;3.15;;;2.33;;
48727;SDS011;34527;45.618;5.130;2024-02-21T13:10:30;4.32;;;2.60;;
48727;SDS011;34527;45.618;5.130;2024-02-21T13:12:56;3.90;;;2.20;;
48727;SDS011;34527;45.618;5.130;2024-02-21T13:15:21;3.70;;;2.58;;
48727;SDS011;34527;45.618;5.130;2024-02-21T13:17:47;2.50;;;2.00;;
48727;SDS011;34527;45.618;5.130;2024-02-21T13:20:13;3.00;;;2.17;;
48727;SDS011;34527;45.618;5.130;2024-02-21T13:22:38;4.05;;;2.00;;
48727;SDS011;34527;45.618;5.130;2024-02-21T13:25:04;3.28;;;2.13;;
48727;SDS011;34527;45.618;5.130;2024-02-21T13:27:32;3.50;;;2.28;;
48727;SDS011;34527;45.618;5.130;2024-02-21T13:29:58;5.32;;;2.03;;
48727;SDS011;34527;45.618;5.130;2024-02-21T13:32:25;3.38;;;2.10;;
48727;SDS011;34527;45.618;5.130;2024-02-21T13:34:51;2.10;;;1.83;;
48727;SDS011;34527;45.618;5.130;2024-02-21T13:37:17;2.92;;;2.08;;
48727;SDS011;34527;45.618;5.130;2024-02-21T13:39:44;3.45;;;2.30;;
48727;SDS011;34527;45.618;5.130;2024-02-21T13:42:11;2.28;;;1.90;;
48727;SDS011;34527;45.618;5.130;2024-02-21T13:44:37;3.65;;;1.90;;
48727;SDS011;34527;45.618;5.130;2024-02-21T13:47:03;2.45;;;2.05;;
48727;SDS011;34527;45.618;5.130;2024-02-21T13:49:30;3.45;;;2.22;;
48727;SDS011;34527;45.618;5.130;2024-02-21T13:51:55;2.28;;;1.90;;
48727;SDS011;34527;45.618;5.130;2024-02-21T13:54:21;3.35;;;2.30;;
48727;SDS011;34527;45.618;5.130;2024-02-21T13:56:47;4.10;;;2.20;;
48727;SDS011;34527;45.618;5.130;2024-02-21T13:59:12;2.67;;;1.70;;
48727;SDS011;34527;45.618;5.130;2024-02-21T14:01:41;6.93;;;2.13;;
48727;SDS011;34527;45.618;5.130;2024-02-21T14:04:08;2.15;;;1.58;;
48727;SDS011;34527;45.618;5.130;2024-02-21T14:06:33;2.25;;;2.05;;
48727;SDS011;34527;45.618;5.130;2024-02-21T14:08:59;3.35;;;2.15;;
48727;SDS011;34527;45.618;5.130;2024-02-21T14:11:25;1.88;;;1.70;;
48727;SDS011;34527;45.618;5.130;2024-02-21T14:13:52;3.08;;;1.88;;
48727;SDS011;34527;45.618;5.130;2024-02-21T14:16:17;3.17;;;2.03;;
48727;SDS011;34527;45.618;5.130;2024-02-21T14:18:43;3.13;;;1.98;;
48727;SDS011;34527;45.618;5.130;2024-02-21T14:21:09;5.60;;;1.85;;
48727;SDS011;34527;45.618;5.130;2024-02-21T14:23:36;3.50;;;1.85;;
48727;SDS011;34527;45.618;5.130;2024-02-21T14:26:02;5.00;;;2.20;;
48727;SDS011;34527;45.618;5.130;2024-02-21T14:28:28;2.65;;;1.88;;
48727;SDS011;34527;45.618;5.130;2024-02-21T14:30:54;4.35;;;2.35;;
48727;SDS011;34527;45.618;5.130;2024-02-21T14:33:23;3.75;;;2.05;;
48727;SDS011;34527;45.618;5.130;2024-02-21T14:35:49;6.63;;;2.10;;
48727;SDS011;34527;45.618;5.130;2024-02-21T14:38:16;2.80;;;2.00;;